createdAt,value
2018-12-05T00:00:05.933Z,6.67
2018-12-05T00:02:34.233Z,6.20
2018-12-05T00:05:02.887Z,6.23
2018-12-05T00:07:31.304Z,5.20
2018-12-05T00:09:59.735Z,5.17
2018-12-05T00:12:28.101Z,5.03
2018-12-05T00:14:56.401Z,4.97
2018-12-05T00:17:24.730Z,6.10
2018-12-05T00:19:53.109Z,9.70
2018-12-05T00:22:21.511Z,5.97
2018-12-05T00:24:49.912Z,4.30
2018-12-05T00:27:18.333Z,4.07
2018-12-05T00:29:46.757Z,4.70
2018-12-05T00:32:15.181Z,9.20
2018-12-05T00:34:43.522Z,7.27
2018-12-05T00:37:11.885Z,10.80
2018-12-05T00:39:40.181Z,8.00
2018-12-05T00:42:08.558Z,8.83
2018-12-05T00:44:36.869Z,5.03
2018-12-05T00:47:05.258Z,3.73
2018-12-05T00:49:33.574Z,4.00
2018-12-05T00:52:01.898Z,5.07
2018-12-05T00:54:30.252Z,4.63
2018-12-05T00:56:58.633Z,4.23
2018-12-05T00:59:27.153Z,4.80
2018-12-05T01:01:55.570Z,4.47
2018-12-05T01:04:24.084Z,4.27
2018-12-05T01:06:52.419Z,4.37
2018-12-05T01:09:20.733Z,4.43
2018-12-05T01:11:49.064Z,4.10
2018-12-05T01:14:17.440Z,4.43
2018-12-05T01:16:45.820Z,4.13
2018-12-05T01:19:14.129Z,3.97
2018-12-05T01:21:42.894Z,4.30
2018-12-05T01:24:11.197Z,4.30
2018-12-05T01:26:40.035Z,4.73
2018-12-05T01:29:08.500Z,4.73
2018-12-05T01:31:36.821Z,4.40
2018-12-05T01:34:05.335Z,4.13
2018-12-05T01:36:33.650Z,5.20
2018-12-05T01:39:01.971Z,5.07
2018-12-05T01:41:30.281Z,5.20
2018-12-05T01:43:58.652Z,4.53
2018-12-05T01:46:27.071Z,4.67
2018-12-05T01:48:55.414Z,4.90
2018-12-05T01:51:23.836Z,5.70
2018-12-05T01:53:52.626Z,5.50
2018-12-05T01:56:21.062Z,5.30
2018-12-05T01:58:49.461Z,5.17
2018-12-05T02:01:17.911Z,5.50
2018-12-05T02:03:46.249Z,5.30
2018-12-05T02:06:15.228Z,5.73
2018-12-05T02:08:43.767Z,5.90
2018-12-05T02:11:12.094Z,5.70
2018-12-05T02:13:40.397Z,5.20
2018-12-05T02:16:08.925Z,5.37
2018-12-05T02:18:37.273Z,5.00
2018-12-05T02:21:05.657Z,5.40
2018-12-05T02:23:34.001Z,5.20
2018-12-05T02:26:02.416Z,5.30
2018-12-05T02:28:31.038Z,5.20
2018-12-05T02:30:59.454Z,5.10
2018-12-05T02:33:27.779Z,5.33
2018-12-05T02:35:56.079Z,5.00
2018-12-05T02:38:24.420Z,4.60
2018-12-05T02:40:52.768Z,5.43
2018-12-05T02:43:21.170Z,5.13
2018-12-05T02:45:49.565Z,5.47
2018-12-05T02:48:18.014Z,5.07
2018-12-05T02:50:46.356Z,5.43
2018-12-05T02:53:14.704Z,5.10
2018-12-05T02:55:43.045Z,5.43
2018-12-05T02:58:11.385Z,4.73
2018-12-05T03:00:39.790Z,4.70
2018-12-05T03:03:08.240Z,5.03
2018-12-05T03:05:36.550Z,4.87
2018-12-05T03:08:04.898Z,4.83
2018-12-05T03:10:33.452Z,5.20
2018-12-05T03:13:01.853Z,4.53
2018-12-05T03:15:30.776Z,5.33
2018-12-05T03:17:59.190Z,5.33
2018-12-05T03:20:27.617Z,5.10
2018-12-05T03:22:56.017Z,4.87
2018-12-05T03:25:24.353Z,5.40
2018-12-05T03:27:52.677Z,5.50
2018-12-05T03:30:21.002Z,5.37
2018-12-05T03:32:49.463Z,5.07
2018-12-05T03:35:20.354Z,5.20
2018-12-05T03:37:48.669Z,5.10
2018-12-05T03:40:16.985Z,5.30
2018-12-05T03:42:45.328Z,5.33
2018-12-05T03:45:13.769Z,5.43
2018-12-05T03:47:42.102Z,5.40
2018-12-05T03:50:10.547Z,5.53
2018-12-05T03:52:38.893Z,4.87
2018-12-05T03:55:07.602Z,4.97
2018-12-05T03:57:35.905Z,6.07
2018-12-05T04:00:04.677Z,4.60
2018-12-05T04:02:33.065Z,4.83
2018-12-05T04:05:01.470Z,4.87
2018-12-05T04:07:29.760Z,5.50
2018-12-05T04:09:58.090Z,4.90
2018-12-05T04:12:26.527Z,5.27
2018-12-05T04:14:54.917Z,5.20
2018-12-05T04:17:23.294Z,6.50
2018-12-05T04:19:51.632Z,5.90
2018-12-05T04:22:20.023Z,4.90
2018-12-05T04:24:48.358Z,4.83
2018-12-05T04:27:16.685Z,5.33
2018-12-05T04:29:45.110Z,4.93
2018-12-05T04:32:13.496Z,4.93
2018-12-05T04:34:41.855Z,4.73
2018-12-05T04:37:10.300Z,5.60
2018-12-05T04:39:38.700Z,5.47
2018-12-05T04:42:07.076Z,5.37
2018-12-05T04:44:35.485Z,5.30
2018-12-05T04:47:03.820Z,5.30
2018-12-05T04:49:32.195Z,5.40
2018-12-05T04:52:00.561Z,4.97
2018-12-05T04:54:28.945Z,5.87
2018-12-05T04:56:57.393Z,5.27
2018-12-05T04:59:25.741Z,4.67
2018-12-05T05:01:54.216Z,4.93
2018-12-05T05:04:22.588Z,5.20
2018-12-05T05:06:50.915Z,4.43
2018-12-05T05:09:19.411Z,4.87
2018-12-05T05:11:47.882Z,4.87
2018-12-05T05:14:16.315Z,5.70
2018-12-05T05:16:44.644Z,5.80
2018-12-05T05:19:13.105Z,5.77
2018-12-05T05:21:41.442Z,6.93
2018-12-05T05:24:09.806Z,8.73
2018-12-05T05:26:38.381Z,7.97
2018-12-05T05:29:06.704Z,8.13
2018-12-05T05:31:38.024Z,11.17
2018-12-05T05:34:07.478Z,10.67
2018-12-05T05:36:35.809Z,9.90
2018-12-05T05:39:06.442Z,12.70
2018-12-05T05:41:34.777Z,12.90
2018-12-05T05:44:03.058Z,13.73
2018-12-05T05:46:31.389Z,13.80
2018-12-05T05:48:59.731Z,12.53
2018-12-05T05:51:28.073Z,12.60
2018-12-05T05:53:56.367Z,13.10
2018-12-05T05:56:24.776Z,17.27
2018-12-05T05:58:53.077Z,16.07
2018-12-05T06:01:21.552Z,17.63
2018-12-05T06:03:49.896Z,15.80
2018-12-05T06:06:18.238Z,17.73
2018-12-05T06:08:46.528Z,16.77
2018-12-05T06:11:14.865Z,16.00
2018-12-05T06:13:43.173Z,13.23
2018-12-05T06:16:11.562Z,12.17
2018-12-05T06:18:39.881Z,10.17
2018-12-05T06:21:08.349Z,11.63
2018-12-05T06:23:36.685Z,9.80
2018-12-05T06:26:05.026Z,10.73
2018-12-05T06:28:33.554Z,11.17
2018-12-05T06:31:02.045Z,11.33
2018-12-05T06:33:30.931Z,9.37
2018-12-05T06:35:59.592Z,8.87
2018-12-05T06:38:27.867Z,7.33
2018-12-05T06:40:56.197Z,7.43
2018-12-05T06:43:24.605Z,7.37
2018-12-05T06:45:52.994Z,7.10
2018-12-05T06:48:21.292Z,8.17
2018-12-05T06:50:49.768Z,8.30
2018-12-05T06:53:18.087Z,9.47
2018-12-05T06:55:46.447Z,10.43
2018-12-05T06:58:14.778Z,8.43
2018-12-05T07:00:43.206Z,8.13
2018-12-05T07:03:11.553Z,7.27
2018-12-05T07:05:39.902Z,7.83
2018-12-05T07:08:08.464Z,7.27
2018-12-05T07:10:36.775Z,8.33
2018-12-05T07:13:05.194Z,8.80
2018-12-05T07:15:33.538Z,8.10
2018-12-05T07:18:01.874Z,7.50
2018-12-05T07:20:30.336Z,8.13
2018-12-05T07:22:58.821Z,8.37
2018-12-05T07:25:27.237Z,9.23
2018-12-05T07:27:55.698Z,7.57
2018-12-05T07:30:29.478Z,7.30
2018-12-05T07:32:54.665Z,8.13
2018-12-05T07:35:29.663Z,8.77
2018-12-05T07:37:58.067Z,8.10
2018-12-05T07:40:26.461Z,7.67
2018-12-05T07:42:54.801Z,8.30
2018-12-05T07:45:23.325Z,8.37
2018-12-05T07:47:53.411Z,8.17
2018-12-05T07:50:21.766Z,8.77
2018-12-05T07:52:50.046Z,10.50
2018-12-05T07:55:18.677Z,9.27
2018-12-05T07:57:47.002Z,9.87
2018-12-05T08:00:15.552Z,13.70
2018-12-05T08:02:44.185Z,13.57
2018-12-05T08:05:12.671Z,12.77
2018-12-05T08:07:41.001Z,11.07
2018-12-05T08:10:09.610Z,11.20
2018-12-05T08:12:37.985Z,10.40
2018-12-05T08:15:07.805Z,10.17
2018-12-05T08:17:36.109Z,11.50
2018-12-05T08:20:04.981Z,12.50
2018-12-05T08:22:33.305Z,15.13
2018-12-05T08:25:01.716Z,19.13
2018-12-05T08:27:30.046Z,17.77
2018-12-05T08:29:58.411Z,19.67
2018-12-05T08:32:26.749Z,20.57
2018-12-05T08:34:55.069Z,25.20
2018-12-05T08:37:23.394Z,25.33
2018-12-05T08:39:51.842Z,25.17
2018-12-05T08:42:20.173Z,25.00
2018-12-05T08:44:48.638Z,25.57
2018-12-05T08:47:17.026Z,24.97
2018-12-05T08:49:45.571Z,24.90
2018-12-05T08:52:13.942Z,19.77
2018-12-05T08:54:42.276Z,15.97
2018-12-05T08:57:12.397Z,13.17
2018-12-05T08:59:40.874Z,12.13
2018-12-05T09:02:09.496Z,12.73
2018-12-05T09:04:37.861Z,11.73
2018-12-05T09:07:06.210Z,10.77
2018-12-05T09:09:34.532Z,10.73
2018-12-05T09:12:02.838Z,10.80
2018-12-05T09:14:31.257Z,10.60
2018-12-05T09:16:59.716Z,10.00
2018-12-05T09:19:28.025Z,7.87
2018-12-05T09:21:56.386Z,9.07
2018-12-05T09:24:24.869Z,8.17
2018-12-05T09:26:53.277Z,7.93
2018-12-05T09:29:21.601Z,8.73
2018-12-05T09:31:49.945Z,8.47
2018-12-05T09:34:18.330Z,8.53
2018-12-05T09:36:46.749Z,9.00
2018-12-05T09:39:15.060Z,9.80
2018-12-05T09:41:43.386Z,9.67
2018-12-05T09:44:11.710Z,18.97
2018-12-05T09:46:40.013Z,24.47
2018-12-05T09:49:08.335Z,14.60
2018-12-05T09:51:36.637Z,10.53
2018-12-05T09:54:05.070Z,10.27
2018-12-05T09:56:33.389Z,8.70
2018-12-05T09:59:01.731Z,9.40
2018-12-05T10:01:30.057Z,9.17
2018-12-05T10:03:58.365Z,8.43
2018-12-05T10:06:26.729Z,7.80
2018-12-05T10:08:55.087Z,7.60
2018-12-05T10:11:23.403Z,7.50
2018-12-05T10:13:51.750Z,6.43
2018-12-05T10:16:20.095Z,6.27
2018-12-05T10:18:48.465Z,5.73
2018-12-05T10:21:16.805Z,6.43
2018-12-05T10:23:45.198Z,5.97
2018-12-05T10:26:13.541Z,6.23
2018-12-05T10:28:41.829Z,6.80
2018-12-05T10:31:10.165Z,6.27
2018-12-05T10:33:38.506Z,6.47
2018-12-05T10:36:06.790Z,6.03
2018-12-05T10:38:35.098Z,7.20
2018-12-05T10:41:03.408Z,6.20
2018-12-05T10:43:31.806Z,6.10
2018-12-05T10:46:00.093Z,6.13
2018-12-05T10:48:28.461Z,6.73
2018-12-05T10:50:56.812Z,6.50
2018-12-05T10:53:25.188Z,6.80
2018-12-05T10:55:53.565Z,6.70
2018-12-05T10:58:21.857Z,6.57
2018-12-05T11:00:55.665Z,6.73
2018-12-05T11:03:29.402Z,6.53
2018-12-05T11:06:02.926Z,6.40
2018-12-05T11:08:36.678Z,6.30
2018-12-05T11:11:10.261Z,6.40
2018-12-05T11:13:44.089Z,7.63
2018-12-05T11:16:17.834Z,8.83
2018-12-05T11:18:51.591Z,11.60
2018-12-05T11:21:25.307Z,10.33
2018-12-05T11:23:57.803Z,8.93
2018-12-05T11:26:29.049Z,7.77
2018-12-05T11:28:57.576Z,6.90
2018-12-05T11:31:25.996Z,7.07
2018-12-05T11:33:54.322Z,6.40
2018-12-05T11:36:22.593Z,6.03
2018-12-05T11:38:51.038Z,5.63
2018-12-05T11:41:19.549Z,5.93
2018-12-05T11:43:47.957Z,6.43
2018-12-05T11:46:16.410Z,5.40
2018-12-05T11:48:44.773Z,5.90
2018-12-05T11:51:13.297Z,6.10
2018-12-05T11:53:41.584Z,6.03
2018-12-05T11:56:09.882Z,5.83
2018-12-05T11:58:38.301Z,6.03
2018-12-05T12:01:06.679Z,5.53
2018-12-05T12:03:35.283Z,5.57
2018-12-05T12:06:03.582Z,5.30
2018-12-05T12:08:31.897Z,5.03
2018-12-05T12:11:02.425Z,5.30
2018-12-05T12:13:30.869Z,5.33
2018-12-05T12:15:59.245Z,5.20
2018-12-05T12:18:27.521Z,4.73
2018-12-05T12:20:55.834Z,4.77
2018-12-05T12:23:24.197Z,5.00
2018-12-05T12:25:52.626Z,4.70
2018-12-05T12:28:21.106Z,3.97
2018-12-05T12:30:49.546Z,4.57
2018-12-05T12:33:17.979Z,4.73
2018-12-05T12:35:46.354Z,4.10
2018-12-05T12:38:14.703Z,5.20
2018-12-05T12:40:43.047Z,4.27
2018-12-05T12:43:11.546Z,5.30
2018-12-05T12:45:40.246Z,3.93
2018-12-05T12:48:08.766Z,4.30
2018-12-05T12:50:37.203Z,4.63
2018-12-05T12:53:05.614Z,4.67
2018-12-05T12:55:34.126Z,4.93
2018-12-05T12:58:02.496Z,5.13
2018-12-05T13:00:30.752Z,5.10
2018-12-05T13:02:59.119Z,5.50
2018-12-05T13:05:27.901Z,5.97
2018-12-05T13:07:56.247Z,5.27
2018-12-05T13:10:24.585Z,4.83
2018-12-05T13:12:54.374Z,4.77
2018-12-05T13:15:23.599Z,4.43
2018-12-05T13:17:52.027Z,4.67
2018-12-05T13:20:20.308Z,4.70
2018-12-05T13:22:48.650Z,4.80
2018-12-05T13:25:17.024Z,4.67
2018-12-05T13:27:45.385Z,4.43
2018-12-05T13:30:13.882Z,5.10
2018-12-05T13:32:42.242Z,4.30
2018-12-05T13:35:10.528Z,5.20
2018-12-05T13:37:38.834Z,5.60
2018-12-05T13:40:07.513Z,5.23
2018-12-05T13:42:35.855Z,5.37
2018-12-05T13:45:04.389Z,5.30
2018-12-05T13:47:32.764Z,4.70
2018-12-05T13:50:01.150Z,4.80
2018-12-05T13:52:29.473Z,5.50
2018-12-05T13:54:57.749Z,6.20
2018-12-05T13:57:26.020Z,5.47
2018-12-05T13:59:54.345Z,5.27
2018-12-05T14:02:22.754Z,5.30
2018-12-05T14:04:51.256Z,4.97
2018-12-05T14:07:19.603Z,4.67
2018-12-05T14:09:47.939Z,5.67
2018-12-05T14:12:21.738Z,5.70
2018-12-05T14:14:50.128Z,6.07
2018-12-05T14:17:18.624Z,5.37
2018-12-05T14:19:46.922Z,5.63
2018-12-05T14:22:15.225Z,6.50
2018-12-05T14:24:43.630Z,5.20
2018-12-05T14:27:11.892Z,4.80
2018-12-05T14:29:40.381Z,5.20
2018-12-05T14:32:08.748Z,4.03
2018-12-05T14:34:37.305Z,4.03
2018-12-05T14:37:06.139Z,4.70
2018-12-05T14:39:34.582Z,3.90
2018-12-05T14:42:02.980Z,4.17
2018-12-05T14:44:31.295Z,4.17
2018-12-05T14:46:59.740Z,4.50
2018-12-05T14:49:28.245Z,4.60
2018-12-05T14:51:56.689Z,4.60
2018-12-05T14:54:25.047Z,4.77
2018-12-05T14:56:53.631Z,4.07
2018-12-05T14:59:22.301Z,3.97
2018-12-05T15:01:50.785Z,4.20
2018-12-05T15:04:19.088Z,4.30
2018-12-05T15:06:47.588Z,7.60
2018-12-05T15:09:16.037Z,9.80
2018-12-05T15:11:44.314Z,8.27
2018-12-05T15:14:12.628Z,6.80
2018-12-05T15:16:41.185Z,6.70
2018-12-05T15:19:09.651Z,6.43
2018-12-05T15:21:37.948Z,5.53
2018-12-05T15:24:06.508Z,5.53
2018-12-05T15:26:34.933Z,4.90
2018-12-05T15:29:03.389Z,4.70
2018-12-05T15:31:31.789Z,5.37
2018-12-05T15:34:00.230Z,5.10
2018-12-05T15:36:28.589Z,4.63
2018-12-05T15:38:56.897Z,4.67
2018-12-05T15:41:25.281Z,4.57
2018-12-05T15:43:53.804Z,4.23
2018-12-05T15:46:22.155Z,4.40
2018-12-05T15:48:50.473Z,5.03
2018-12-05T15:51:18.929Z,5.63
2018-12-05T15:53:47.228Z,6.00
2018-12-05T15:56:15.533Z,4.83
2018-12-05T15:58:43.891Z,4.90
2018-12-05T16:01:12.193Z,5.07
2018-12-05T16:03:43.280Z,4.80
2018-12-05T16:06:11.023Z,4.67
2018-12-05T16:08:39.321Z,4.53
2018-12-05T16:11:07.764Z,4.73
2018-12-05T16:13:36.096Z,4.40
2018-12-05T16:16:04.600Z,4.43
2018-12-05T16:18:32.998Z,4.60
2018-12-05T16:21:01.335Z,4.77
2018-12-05T16:23:29.696Z,4.67
2018-12-05T16:25:58.094Z,5.43
2018-12-05T16:28:26.453Z,5.10
2018-12-05T16:30:54.814Z,4.93
2018-12-05T16:33:23.277Z,4.93
2018-12-05T16:35:51.633Z,5.03
2018-12-05T16:38:19.910Z,4.93
2018-12-05T16:40:48.273Z,4.47
2018-12-05T16:43:16.537Z,4.80
2018-12-05T16:45:45.049Z,5.03
2018-12-05T16:48:13.427Z,5.20
2018-12-05T16:50:41.802Z,5.37
2018-12-05T16:53:10.070Z,5.00
2018-12-05T16:55:38.376Z,4.97
2018-12-05T16:58:06.648Z,5.70
2018-12-05T17:00:35.163Z,5.50
2018-12-05T17:03:03.460Z,5.57
2018-12-05T17:05:31.910Z,5.73
2018-12-05T17:08:00.248Z,5.33
2018-12-05T17:10:28.561Z,5.57
2018-12-05T17:12:56.925Z,6.20
2018-12-05T17:15:25.408Z,5.77
2018-12-05T17:17:53.936Z,5.63
2018-12-05T17:20:22.417Z,6.37
2018-12-05T17:22:50.740Z,5.77
2018-12-05T17:25:19.329Z,6.13
2018-12-05T17:27:47.642Z,6.40
2018-12-05T17:30:15.966Z,6.87
2018-12-05T17:32:44.514Z,6.63
2018-12-05T17:35:12.997Z,6.63
2018-12-05T17:37:41.387Z,6.70
2018-12-05T17:40:09.874Z,6.23
2018-12-05T17:42:38.189Z,6.90
2018-12-05T17:45:06.681Z,6.70
2018-12-05T17:47:35.041Z,6.67
2018-12-05T17:50:04.065Z,6.50
2018-12-05T17:52:32.605Z,6.77
2018-12-05T17:55:01.089Z,6.97
2018-12-05T17:57:29.405Z,6.33
2018-12-05T17:59:57.734Z,6.77
2018-12-05T18:02:26.092Z,6.17
2018-12-05T18:04:54.369Z,6.93
2018-12-05T18:07:23.027Z,7.43
2018-12-05T18:09:51.342Z,6.53
2018-12-05T18:12:19.766Z,7.03
2018-12-05T18:14:48.161Z,6.67
2018-12-05T18:17:16.518Z,6.80
2018-12-05T18:19:44.908Z,6.40
2018-12-05T18:22:13.404Z,6.40
2018-12-05T18:24:42.084Z,6.50
2018-12-05T18:27:10.457Z,6.77
2018-12-05T18:29:38.810Z,6.27
2018-12-05T18:32:07.190Z,6.33
2018-12-05T18:34:35.659Z,5.93
2018-12-05T18:37:04.094Z,6.63
2018-12-05T18:39:32.385Z,7.37
2018-12-05T18:42:00.802Z,7.50
2018-12-05T18:44:29.102Z,7.30
2018-12-05T18:46:57.594Z,7.60
2018-12-05T18:49:26.222Z,7.70
2018-12-05T18:51:54.791Z,7.10
2018-12-05T18:54:26.104Z,6.50
2018-12-05T18:56:54.932Z,6.90
2018-12-05T18:59:23.378Z,6.90
2018-12-05T19:01:51.812Z,6.90
2018-12-05T19:04:20.186Z,6.50
2018-12-05T19:06:48.502Z,6.17
2018-12-05T19:09:16.897Z,5.93
2018-12-05T19:11:45.897Z,6.30
2018-12-05T19:14:20.198Z,5.80
2018-12-05T19:16:48.778Z,6.43
2018-12-05T19:19:17.957Z,6.13
2018-12-05T19:21:47.278Z,5.87
2018-12-05T19:24:16.555Z,6.97
2018-12-05T19:26:45.778Z,7.33
2018-12-05T19:29:15.657Z,7.87
2018-12-05T19:31:44.206Z,6.83
2018-12-05T19:34:12.598Z,6.40
2018-12-05T19:36:41.106Z,6.73
2018-12-05T19:39:09.738Z,6.03
2018-12-05T19:41:38.284Z,5.90
2018-12-05T19:44:07.370Z,6.43
2018-12-05T19:46:35.978Z,5.97
2018-12-05T19:49:04.787Z,6.23
2018-12-05T19:51:34.376Z,5.90
2018-12-05T19:54:02.919Z,6.10
2018-12-05T19:56:31.294Z,6.40
2018-12-05T19:59:00.099Z,6.23
2018-12-05T20:01:29.186Z,6.73
2018-12-05T20:03:59.125Z,6.97
2018-12-05T20:06:27.568Z,6.57
2018-12-05T20:08:56.704Z,6.73
2018-12-05T20:11:31.456Z,6.70
2018-12-05T20:14:01.302Z,6.33
2018-12-05T20:16:33.159Z,6.67
2018-12-05T20:19:04.426Z,6.83
2018-12-05T20:21:38.227Z,7.23
2018-12-05T20:24:06.814Z,6.67
2018-12-05T20:26:35.182Z,6.07
2018-12-05T20:29:03.583Z,6.20
2018-12-05T20:31:32.106Z,6.30
2018-12-05T20:34:00.621Z,6.70
2018-12-05T20:36:29.021Z,5.93
2018-12-05T20:38:57.936Z,5.77
2018-12-05T20:41:32.405Z,6.00
2018-12-05T20:43:57.557Z,7.50
2018-12-05T20:46:26.242Z,7.50
2018-12-05T20:48:54.869Z,6.20
2018-12-05T20:51:23.521Z,6.97
2018-12-05T20:53:52.113Z,6.97
2018-12-05T20:56:20.533Z,8.20
2018-12-05T20:58:48.905Z,7.33
2018-12-05T21:01:17.298Z,7.20
2018-12-05T21:03:46.169Z,6.90
2018-12-05T21:06:14.729Z,6.93
2018-12-05T21:08:43.216Z,7.20
2018-12-05T21:11:12.179Z,8.57
2018-12-05T21:13:42.730Z,9.97
2018-12-05T21:16:11.598Z,9.67
2018-12-05T21:18:40.145Z,8.00
2018-12-05T21:21:08.670Z,9.43
2018-12-05T21:23:37.192Z,9.97
2018-12-05T21:26:06.404Z,9.87
2018-12-05T21:31:34.897Z,6.87
2018-12-05T21:34:03.321Z,6.87
2018-12-05T21:36:33.621Z,6.50
2018-12-05T21:39:13.526Z,6.33
2018-12-05T21:41:42.368Z,6.50
2018-12-05T21:44:10.902Z,5.97
2018-12-05T21:46:39.553Z,6.07
2018-12-05T21:49:08.047Z,5.87
2018-12-05T21:51:36.446Z,5.90
2018-12-05T21:54:05.438Z,6.30
2018-12-05T21:56:34.219Z,5.70
2018-12-05T21:59:02.612Z,5.97
2018-12-05T22:01:30.989Z,6.27
2018-12-05T22:03:59.431Z,5.53
2018-12-05T22:06:27.809Z,6.17
2018-12-05T22:08:56.999Z,5.80
2018-12-05T22:11:25.581Z,5.80
2018-12-05T22:13:54.326Z,5.80
2018-12-05T22:16:22.756Z,5.47
2018-12-05T22:18:51.751Z,5.90
2018-12-05T22:21:20.140Z,5.77
2018-12-05T22:23:48.640Z,5.70
2018-12-05T22:26:17.081Z,5.47
2018-12-05T22:28:45.405Z,5.70
2018-12-05T22:31:13.736Z,5.77
2018-12-05T22:33:42.168Z,5.53
2018-12-05T22:36:10.707Z,5.43
2018-12-05T22:38:39.183Z,6.33
2018-12-05T22:41:07.887Z,5.30
2018-12-05T22:43:36.517Z,5.80
2018-12-05T22:46:05.213Z,5.97
2018-12-05T22:48:34.967Z,5.93
2018-12-05T22:51:03.393Z,5.37
2018-12-05T22:53:32.029Z,5.73
2018-12-05T22:56:00.378Z,5.90
2018-12-05T22:58:28.862Z,5.60
2018-12-05T23:00:58.821Z,5.90
2018-12-05T23:03:27.232Z,5.83
2018-12-05T23:05:55.709Z,5.80
2018-12-05T23:08:24.125Z,6.63
2018-12-05T23:10:52.425Z,6.73
2018-12-05T23:13:21.116Z,6.80
2018-12-05T23:15:49.489Z,6.80
2018-12-05T23:18:17.947Z,6.77
2018-12-05T23:20:46.265Z,6.00
2018-12-05T23:23:14.567Z,6.83
2018-12-05T23:25:43.140Z,5.93
2018-12-05T23:28:11.522Z,6.80
2018-12-05T23:30:39.825Z,6.27
2018-12-05T23:33:08.220Z,7.40
2018-12-05T23:35:36.485Z,7.07
2018-12-05T23:38:04.945Z,5.80
2018-12-05T23:40:33.452Z,6.27
2018-12-05T23:43:01.775Z,6.83
2018-12-05T23:45:30.113Z,5.93
2018-12-05T23:47:58.561Z,6.47
2018-12-05T23:50:26.941Z,6.23
2018-12-05T23:52:55.226Z,6.60
2018-12-05T23:55:23.614Z,6.50
2018-12-05T23:57:51.991Z,6.20
